createdAt,value
2019-01-02T00:05:13.842Z,76.15
2019-01-02T00:07:42.380Z,76.42
2019-01-02T00:10:30.176Z,77.64
2019-01-02T00:13:18.143Z,74.59
2019-01-02T00:16:05.947Z,72.79
2019-01-02T00:18:55.493Z,74.46
2019-01-02T00:21:43.171Z,75.12
2019-01-02T00:27:04.636Z,72.98
2019-01-02T00:29:54.196Z,71.39
2019-01-02T00:32:23.918Z,70.78
2019-01-02T00:37:47.559Z,71.43
2019-01-02T00:40:35.353Z,70.55
2019-01-02T00:46:18.281Z,71.13
2019-01-02T00:49:06.050Z,73.20
2019-01-02T00:51:53.721Z,72.55
2019-01-02T00:54:22.228Z,71.98
2019-01-02T00:57:10.025Z,70.58
2019-01-02T00:59:38.541Z,71.35
2019-01-02T01:02:26.344Z,71.07
2019-01-02T01:07:47.837Z,71.40
2019-01-02T01:10:56.272Z,71.82
2019-01-02T01:13:44.087Z,73.53
2019-01-02T01:16:31.785Z,80.15
2019-01-02T01:19:21.228Z,83.91
2019-01-02T01:22:08.860Z,82.56
2019-01-02T01:24:37.340Z,80.58
2019-01-02T01:30:01.321Z,83.48
2019-01-02T01:32:29.865Z,84.77
2019-01-02T01:35:00.136Z,84.05
2019-01-02T01:37:49.640Z,84.05
2019-01-02T01:40:37.438Z,84.56
2019-01-02T01:43:25.280Z,84.83
2019-01-02T01:46:13.078Z,85.18
2019-01-02T01:49:02.510Z,87.97
2019-01-02T01:51:32.704Z,89.37
2019-01-02T01:54:01.180Z,89.91
2019-01-02T01:56:48.940Z,90.76
2019-01-02T01:59:38.387Z,89.62
2019-01-02T02:02:26.086Z,86.98
2019-01-02T02:08:03.040Z,82.62
2019-01-02T02:10:50.711Z,81.34
2019-01-02T02:16:33.845Z,77.91
2019-01-02T02:19:21.564Z,77.11
2019-01-02T02:22:09.361Z,78.19
2019-01-02T02:24:57.061Z,76.85
2019-01-02T02:27:56.722Z,77.60
2019-01-02T02:30:55.022Z,77.42
2019-01-02T02:33:25.218Z,76.41
2019-01-02T02:39:08.291Z,76.17
2019-01-02T02:41:57.837Z,76.23
2019-01-02T02:44:47.354Z,75.92
2019-01-02T02:47:36.833Z,77.67
2019-01-02T02:50:46.943Z,77.22
2019-01-02T02:53:36.496Z,77.20
2019-01-02T02:56:25.954Z,76.54
2019-01-02T02:59:15.388Z,76.29
2019-01-02T03:02:04.977Z,76.45
2019-01-02T03:04:54.533Z,77.43
2019-01-02T03:07:24.733Z,77.33
2019-01-02T03:13:08.266Z,76.34
2019-01-02T03:15:57.825Z,76.72
2019-01-02T03:18:47.233Z,77.02
2019-01-02T03:24:10.513Z,77.65
2019-01-02T03:26:58.209Z,77.00
2019-01-02T03:29:26.786Z,76.61
2019-01-02T03:31:57.056Z,75.31
2019-01-02T03:34:46.481Z,75.51
2019-01-02T03:37:14.972Z,76.21
2019-01-02T03:40:02.674Z,77.39
2019-01-02T03:42:31.220Z,76.80
2019-01-02T03:47:53.021Z,77.15
2019-01-02T03:50:40.860Z,77.47
2019-01-02T03:53:28.657Z,76.21
2019-01-02T03:58:50.114Z,76.46
2019-01-02T04:01:37.958Z,77.95
2019-01-02T04:04:25.636Z,76.93
2019-01-02T04:09:47.841Z,78.04
2019-01-02T04:12:35.630Z,76.37
2019-01-02T04:15:44.027Z,77.73
2019-01-02T04:21:06.284Z,78.13
2019-01-02T04:23:53.985Z,78.55
2019-01-02T04:26:41.714Z,78.93
2019-01-02T04:32:22.637Z,78.03
2019-01-02T04:34:51.154Z,77.21
2019-01-02T04:37:38.949Z,77.50
2019-01-02T04:43:20.011Z,79.10
2019-01-02T04:46:07.807Z,79.17
2019-01-02T04:48:55.604Z,78.07
2019-01-02T04:51:24.117Z,75.35
2019-01-02T04:54:11.804Z,75.55
2019-01-02T04:56:59.638Z,75.03
2019-01-02T04:59:47.325Z,73.52
2019-01-02T05:02:35.154Z,73.48
2019-01-02T05:05:22.948Z,74.31
2019-01-02T05:07:51.568Z,73.51
2019-01-02T05:10:39.373Z,73.06
2019-01-02T05:13:27.209Z,74.43
2019-01-02T05:16:14.937Z,72.38
2019-01-02T05:19:02.774Z,72.91
2019-01-02T05:21:31.253Z,74.83
2019-01-02T05:23:59.803Z,74.20
2019-01-02T05:26:28.313Z,74.23
2019-01-02T05:28:56.827Z,74.96
2019-01-02T05:31:44.530Z,74.02
2019-01-02T05:34:13.015Z,74.24
2019-01-02T05:37:00.738Z,74.56
2019-01-02T05:39:29.212Z,74.82
2019-01-02T05:42:17.046Z,75.98
2019-01-02T05:50:46.026Z,75.83
2019-01-02T05:53:33.874Z,75.38
2019-01-02T05:56:21.545Z,75.79
2019-01-02T05:59:09.445Z,75.42
2019-01-02T06:01:57.236Z,74.83
2019-01-02T06:07:19.467Z,75.28
2019-01-02T06:12:22.497Z,75.32
2019-01-02T06:15:10.231Z,75.86
2019-01-02T06:17:57.914Z,76.82
2019-01-02T06:20:45.744Z,76.17
2019-01-02T06:23:33.542Z,76.91
2019-01-02T06:26:02.188Z,76.82
2019-01-02T06:28:49.878Z,76.54
2019-01-02T06:31:37.766Z,76.45
2019-01-02T06:34:25.559Z,76.39
2019-01-02T06:37:13.380Z,76.69
2019-01-02T06:40:01.053Z,76.79
2019-01-02T06:42:48.754Z,76.32
2019-01-02T06:45:17.303Z,76.61
2019-01-02T06:48:05.090Z,77.22
2019-01-02T06:50:52.933Z,77.27
2019-01-02T06:53:21.481Z,76.72
2019-01-02T06:55:49.961Z,77.47
2019-01-02T06:58:37.833Z,78.38
2019-01-02T07:01:46.223Z,77.56
2019-01-02T07:04:34.057Z,76.55
2019-01-02T07:07:21.854Z,77.54
2019-01-02T07:12:43.406Z,77.98
2019-01-02T07:15:31.117Z,76.53
2019-01-02T07:18:18.795Z,76.75
2019-01-02T07:20:47.386Z,78.16
2019-01-02T07:23:15.881Z,77.67
2019-01-02T07:25:44.383Z,77.17
2019-01-02T07:31:06.009Z,77.39
2019-01-02T07:34:14.662Z,77.01
2019-01-02T07:37:23.107Z,77.85
2019-01-02T07:40:33.202Z,78.04
2019-01-02T07:43:40.342Z,78.04
2019-01-02T07:46:47.442Z,78.04
2019-01-02T07:49:54.511Z,78.15
2019-01-02T07:53:03.032Z,77.48
2019-01-02T07:56:10.098Z,78.47
2019-01-02T07:59:17.206Z,78.29
2019-01-02T08:02:25.703Z,79.04
2019-01-02T08:05:35.740Z,79.59
2019-01-02T08:08:44.185Z,78.85
2019-01-02T08:11:52.620Z,78.18
2019-01-02T08:15:03.171Z,78.17
2019-01-02T08:18:08.566Z,77.64
2019-01-02T08:21:15.686Z,77.84
2019-01-02T08:24:24.132Z,78.17
2019-01-02T08:27:32.567Z,77.47
2019-01-02T08:30:39.657Z,77.47
2019-01-02T08:33:46.855Z,77.22
2019-01-02T08:36:55.266Z,76.52
2019-01-02T08:40:02.362Z,77.50
2019-01-02T08:43:09.503Z,77.22
2019-01-02T08:46:17.949Z,77.27
2019-01-02T08:49:25.063Z,76.73
2019-01-02T08:52:32.193Z,76.88
2019-01-02T08:55:39.291Z,76.55
2019-01-02T08:58:47.689Z,76.41
2019-01-02T09:01:56.256Z,75.70
2019-01-02T09:05:04.657Z,74.97
2019-01-02T09:08:11.756Z,75.45
2019-01-02T09:11:18.830Z,74.84
2019-01-02T09:14:26.193Z,73.85
2019-01-02T09:17:34.589Z,74.21
2019-01-02T09:20:43.105Z,73.05
2019-01-02T09:23:51.495Z,74.42
2019-01-02T09:26:58.596Z,72.42
2019-01-02T09:30:05.669Z,72.92
2019-01-02T09:33:14.199Z,72.14
2019-01-02T09:36:22.593Z,72.62
2019-01-02T09:39:29.732Z,71.99
2019-01-02T09:42:38.128Z,70.56
2019-01-02T09:45:46.555Z,71.72
2019-01-02T09:48:55.005Z,71.64
2019-01-02T09:52:03.432Z,73.30
2019-01-02T09:55:10.503Z,71.88
2019-01-02T09:58:17.611Z,73.01
2019-01-02T10:01:24.682Z,73.83
2019-01-02T10:04:33.332Z,72.11
2019-01-02T10:07:41.781Z,72.73
2019-01-02T10:10:50.274Z,73.33
2019-01-02T10:13:57.377Z,74.27
2019-01-02T10:17:04.489Z,78.23
2019-01-02T10:20:11.555Z,81.40
2019-01-02T10:23:18.877Z,83.23
2019-01-02T10:26:25.942Z,82.90
2019-01-02T10:29:33.037Z,82.82
2019-01-02T10:32:41.487Z,81.24
2019-01-02T10:35:48.667Z,81.38
2019-01-02T10:38:55.733Z,81.65
2019-01-02T10:42:04.254Z,78.70
2019-01-02T10:45:11.392Z,77.92
2019-01-02T10:48:19.818Z,78.55
2019-01-02T10:51:26.881Z,79.65
2019-01-02T10:54:35.375Z,78.04
2019-01-02T10:57:43.765Z,78.60
2019-01-02T11:00:50.865Z,77.54
2019-01-02T11:03:57.934Z,77.34
2019-01-02T11:07:06.430Z,76.75
2019-01-02T11:10:14.831Z,76.35
2019-01-02T11:13:22.153Z,75.30
2019-01-02T11:16:30.557Z,75.53
2019-01-02T11:19:38.983Z,73.80
2019-01-02T11:22:47.385Z,74.06
2019-01-02T11:25:54.485Z,74.32
2019-01-02T11:29:02.931Z,74.77
2019-01-02T11:32:10.066Z,74.71
2019-01-02T11:35:18.510Z,75.16
2019-01-02T11:38:27.062Z,74.37
2019-01-02T11:41:34.129Z,76.91
2019-01-02T11:44:42.621Z,78.16
2019-01-02T11:47:30.314Z,79.71
2019-01-02T11:49:58.847Z,79.48
2019-01-02T11:52:27.320Z,81.25
2019-01-02T11:54:55.797Z,79.75
2019-01-02T11:57:24.378Z,80.58
2019-01-02T12:00:12.249Z,80.98
2019-01-02T12:02:59.961Z,83.09
2019-01-02T12:05:47.773Z,83.45
2019-01-02T12:08:35.686Z,85.09
2019-01-02T12:11:23.486Z,83.38
2019-01-02T12:16:45.660Z,87.57
2019-01-02T12:22:07.355Z,91.62
2019-01-02T12:24:35.869Z,92.19
2019-01-02T12:27:23.530Z,93.29
2019-01-02T12:29:52.065Z,93.87
2019-01-02T12:32:39.793Z,90.72
2019-01-02T12:35:08.482Z,89.94
2019-01-02T12:37:56.309Z,90.01
2019-01-02T12:43:18.522Z,86.39
2019-01-02T12:46:06.411Z,86.27
2019-01-02T12:48:54.086Z,84.86
2019-01-02T12:51:41.792Z,85.86
2019-01-02T12:54:29.627Z,86.32
2019-01-02T13:02:50.045Z,84.85
2019-01-02T13:05:57.113Z,83.70
2019-01-02T13:09:04.841Z,84.08
2019-01-02T13:12:13.233Z,84.57
2019-01-02T13:15:21.750Z,83.61
2019-01-02T13:18:28.803Z,86.10
2019-01-02T13:21:35.900Z,85.21
2019-01-02T13:24:44.423Z,81.97
2019-01-02T13:27:52.833Z,82.07
2019-01-02T13:30:59.932Z,79.23
2019-01-02T13:40:22.790Z,78.59
2019-01-02T13:43:29.881Z,78.26
2019-01-02T13:46:38.278Z,79.63
2019-01-02T13:49:45.377Z,79.79
2019-01-02T13:52:33.048Z,80.01
2019-01-02T13:55:41.478Z,80.56
2019-01-02T13:58:09.950Z,81.16
2019-01-02T14:00:57.649Z,81.23
2019-01-02T14:03:26.130Z,82.36
2019-01-02T14:06:14.020Z,82.81
2019-01-02T14:09:01.614Z,83.08
2019-01-02T14:11:49.385Z,82.34
2019-01-02T14:14:17.860Z,81.84
2019-01-02T14:16:46.343Z,76.20
2019-01-02T14:19:14.847Z,77.26
2019-01-02T14:22:02.647Z,74.27
2019-01-02T14:24:50.365Z,71.64
2019-01-02T14:27:38.169Z,71.51
2019-01-02T14:30:46.583Z,70.41
2019-01-02T14:33:34.254Z,73.72
2019-01-02T14:36:02.767Z,74.96
2019-01-02T14:38:31.246Z,74.87
2019-01-02T14:41:19.096Z,74.85
2019-01-02T14:43:47.577Z,75.36
2019-01-02T14:46:35.285Z,75.70
2019-01-02T14:49:22.954Z,77.67
2019-01-02T14:55:04.030Z,77.83
2019-01-02T14:57:51.798Z,77.53
2019-01-02T15:00:39.534Z,78.09
2019-01-02T15:03:27.387Z,76.21
2019-01-02T15:06:15.185Z,74.55
2019-01-02T15:09:03.205Z,71.81
2019-01-02T15:11:50.884Z,73.55
2019-01-02T15:22:58.308Z,72.88
2019-01-02T15:25:26.809Z,72.79
2019-01-02T15:28:15.367Z,71.36
2019-01-02T15:33:58.082Z,76.08
2019-01-02T15:36:45.924Z,76.71
2019-01-02T15:39:33.720Z,74.62
2019-01-02T15:42:21.641Z,73.47
2019-01-02T15:44:50.126Z,71.16
2019-01-02T15:47:18.706Z,70.57
2019-01-02T15:50:06.574Z,70.95
2019-01-02T15:52:54.284Z,70.49
2019-01-02T15:55:42.091Z,69.29
2019-01-02T15:58:29.925Z,70.78
2019-01-02T16:01:17.597Z,70.34
2019-01-02T16:06:58.573Z,71.61
2019-01-02T16:09:46.483Z,72.49
2019-01-02T16:12:15.029Z,74.18
2019-01-02T16:15:02.824Z,76.19
2019-01-02T16:17:50.636Z,75.50
2019-01-02T16:20:38.520Z,75.90
2019-01-02T16:23:26.245Z,77.83
2019-01-02T16:26:14.109Z,78.74
2019-01-02T16:29:01.784Z,80.33
2019-01-02T16:31:30.296Z,80.42
2019-01-02T16:34:18.093Z,80.98
2019-01-02T16:37:05.946Z,82.39
2019-01-02T16:39:53.552Z,81.34
2019-01-02T16:42:41.451Z,82.01
2019-01-02T16:45:10.089Z,82.05
2019-01-02T16:47:57.804Z,82.02
2019-01-02T16:50:45.596Z,79.79
2019-01-02T16:56:07.661Z,78.77
2019-01-02T16:58:55.446Z,78.09
2019-01-02T17:01:43.324Z,77.45
2019-01-02T17:04:31.051Z,77.26
2019-01-02T17:06:59.597Z,76.91
2019-01-02T17:09:47.267Z,77.07
2019-01-02T17:12:15.861Z,78.05
2019-01-02T17:15:03.457Z,78.17
2019-01-02T17:17:32.044Z,77.30
2019-01-02T17:23:28.036Z,77.72
2019-01-02T17:26:15.703Z,77.71
2019-01-02T17:28:44.220Z,78.05
2019-01-02T17:31:12.700Z,78.04
2019-01-02T17:34:00.663Z,77.81
2019-01-02T17:36:29.142Z,77.96
2019-01-02T17:39:17.010Z,79.89
2019-01-02T17:42:04.675Z,78.87
2019-01-02T17:44:52.507Z,79.85
2019-01-02T17:47:40.306Z,79.78
2019-01-02T17:50:48.738Z,80.58
2019-01-02T17:53:17.215Z,81.33
2019-01-02T17:56:05.060Z,82.30
2019-01-02T17:58:33.530Z,79.67
2019-01-02T18:03:35.647Z,80.15
2019-01-02T18:08:58.637Z,81.77
2019-01-02T18:11:46.423Z,83.54
2019-01-02T18:14:34.140Z,85.19
2019-01-02T18:17:21.840Z,85.35
2019-01-02T18:20:09.634Z,86.13
2019-01-02T18:22:38.181Z,86.19
2019-01-02T18:25:46.573Z,86.87
2019-01-02T18:28:15.112Z,86.88
2019-01-02T18:30:43.565Z,86.77
2019-01-02T18:33:12.076Z,88.22
2019-01-02T18:35:59.868Z,88.61
2019-01-02T18:38:47.725Z,88.19
2019-01-02T18:41:16.195Z,89.26
2019-01-02T18:44:04.041Z,88.80
2019-01-02T18:46:52.084Z,89.11
2019-01-02T18:49:20.854Z,88.43
2019-01-02T18:51:49.352Z,88.46
2019-01-02T18:57:10.981Z,88.62
2019-01-02T18:59:58.744Z,88.71
2019-01-02T19:02:27.219Z,89.57
2019-01-02T19:05:15.049Z,88.86
2019-01-02T19:07:43.534Z,89.02
2019-01-02T19:10:31.366Z,89.39
2019-01-02T19:13:19.051Z,86.44
2019-01-02T19:16:06.751Z,88.82
2019-01-02T19:18:35.256Z,88.63
2019-01-02T19:21:23.118Z,87.65
2019-01-02T19:24:10.909Z,87.78
2019-01-02T19:26:39.425Z,87.40
2019-01-02T19:29:27.148Z,86.97
2019-01-02T19:32:15.154Z,88.32
2019-01-02T19:34:43.635Z,88.28
2019-01-02T19:37:12.188Z,87.97
2019-01-02T19:39:40.701Z,87.57
2019-01-02T19:45:21.496Z,88.05
2019-01-02T19:48:09.425Z,87.89
2019-01-02T19:50:57.195Z,88.04
2019-01-02T19:53:44.910Z,88.34
2019-01-02T19:56:32.583Z,88.03
2019-01-02T19:59:20.599Z,88.49
2019-01-02T20:02:08.273Z,88.43
2019-01-02T20:04:56.123Z,88.94
2019-01-02T20:07:43.988Z,89.31
2019-01-02T20:10:31.821Z,89.71
2019-01-02T20:13:19.642Z,90.20
2019-01-02T20:16:07.579Z,89.04
2019-01-02T20:18:55.443Z,89.79
2019-01-02T20:21:43.365Z,89.57
2019-01-02T20:24:32.856Z,90.64
2019-01-02T20:30:14.019Z,89.80
2019-01-02T20:33:02.057Z,89.42
2019-01-02T20:35:49.831Z,89.75
2019-01-02T20:38:37.743Z,88.93
2019-01-02T20:41:25.539Z,89.48
2019-01-02T20:44:13.543Z,89.95
2019-01-02T20:47:01.361Z,90.23
2019-01-02T20:49:49.410Z,90.32
2019-01-02T20:52:37.224Z,90.75
2019-01-02T20:55:45.739Z,90.62
2019-01-02T20:58:14.223Z,91.03
2019-01-02T21:01:02.062Z,90.84
2019-01-02T21:03:49.865Z,91.12
2019-01-02T21:06:37.809Z,91.65
2019-01-02T21:09:46.218Z,91.42
2019-01-02T21:12:34.155Z,90.96
2019-01-02T21:15:22.060Z,90.85
2019-01-02T21:21:03.965Z,91.42
2019-01-02T21:23:51.914Z,91.50
2019-01-02T21:26:39.735Z,92.10
2019-01-02T21:29:27.607Z,91.98
2019-01-02T21:32:15.499Z,92.17
2019-01-02T21:35:03.554Z,92.07
2019-01-02T21:37:32.063Z,92.33
2019-01-02T21:46:19.827Z,91.53
2019-01-02T21:49:07.642Z,91.36
2019-01-02T21:54:30.033Z,91.63
2019-01-02T21:57:18.528Z,91.90
2019-01-02T21:59:47.107Z,91.59
2019-01-02T22:02:15.885Z,91.23
2019-01-02T22:05:03.730Z,91.37
2019-01-02T22:07:32.215Z,91.29
2019-01-02T22:10:20.041Z,90.95
2019-01-02T22:13:07.712Z,90.96
2019-01-02T22:15:36.231Z,89.77
2019-01-02T22:18:24.038Z,89.34
2019-01-02T22:20:52.552Z,89.04
2019-01-02T22:23:40.382Z,89.17
2019-01-02T22:26:28.218Z,90.18
2019-01-02T22:29:15.902Z,90.87
2019-01-02T22:32:03.733Z,90.94
2019-01-02T22:34:51.525Z,91.46
2019-01-02T22:40:32.484Z,92.05
2019-01-02T22:43:20.194Z,92.30
2019-01-02T22:46:07.914Z,92.18
2019-01-02T22:48:36.431Z,92.57
2019-01-02T22:51:24.230Z,92.65
2019-01-02T22:53:52.760Z,93.33
2019-01-02T22:56:21.310Z,93.57
2019-01-02T22:59:09.033Z,93.42
2019-01-02T23:05:04.814Z,92.64
2019-01-02T23:07:52.496Z,92.50
2019-01-02T23:13:54.068Z,92.36
2019-01-02T23:16:41.723Z,92.88
2019-01-02T23:19:29.382Z,93.45
2019-01-02T23:22:16.988Z,92.42
2019-01-02T23:25:23.882Z,92.93
2019-01-02T23:28:11.577Z,92.74
2019-01-02T23:36:31.340Z,92.96
2019-01-02T23:39:18.975Z,93.53
2019-01-02T23:42:06.972Z,93.72
2019-01-02T23:44:54.710Z,93.33
2019-01-02T23:47:42.343Z,93.35
2019-01-02T23:50:29.944Z,93.43
2019-01-02T23:53:36.898Z,93.07
2019-01-02T23:56:43.780Z,93.26
2019-01-02T23:59:31.380Z,93.49
